createdAt,value
2019-05-29T00:00:25.857Z,11.20
2019-05-29T00:02:51.682Z,11.14
2019-05-29T00:05:18.425Z,11.14
2019-05-29T00:07:44.383Z,10.98
2019-05-29T00:10:10.587Z,10.89
2019-05-29T00:12:36.562Z,10.90
2019-05-29T00:15:03.312Z,10.92
2019-05-29T00:17:29.168Z,10.88
2019-05-29T00:19:55.012Z,10.73
2019-05-29T00:22:20.851Z,10.69
2019-05-29T00:24:46.709Z,10.63
2019-05-29T00:27:15.401Z,10.54
2019-05-29T00:29:40.326Z,10.54
2019-05-29T00:32:06.850Z,10.54
2019-05-29T00:34:32.837Z,10.54
2019-05-29T00:36:58.684Z,10.45
2019-05-29T00:39:24.541Z,10.46
2019-05-29T00:41:50.376Z,10.52
2019-05-29T00:44:17.374Z,10.46
2019-05-29T00:46:43.414Z,10.51
2019-05-29T00:49:09.698Z,10.51
2019-05-29T00:51:35.598Z,10.34
2019-05-29T00:54:01.610Z,10.34
2019-05-29T00:56:27.387Z,10.52
2019-05-29T00:58:53.211Z,10.51
2019-05-29T01:01:20.659Z,10.49
2019-05-29T01:03:46.514Z,10.40
2019-05-29T01:06:12.381Z,10.48
2019-05-29T01:08:38.238Z,10.57
2019-05-29T01:11:04.158Z,10.44
2019-05-29T01:13:30.070Z,10.42
2019-05-29T01:15:55.924Z,10.43
2019-05-29T01:18:22.354Z,10.53
2019-05-29T01:20:48.344Z,10.33
2019-05-29T01:23:14.231Z,10.39
2019-05-29T01:25:40.038Z,10.27
2019-05-29T01:28:05.893Z,10.40
2019-05-29T01:30:31.777Z,10.33
2019-05-29T01:32:57.722Z,10.39
2019-05-29T01:35:24.162Z,10.41
2019-05-29T01:37:50.171Z,10.41
2019-05-29T01:40:22.177Z,10.41
2019-05-29T01:42:43.802Z,10.42
2019-05-29T01:45:09.738Z,10.47
2019-05-29T01:47:35.694Z,10.48
2019-05-29T01:50:01.631Z,10.58
2019-05-29T01:52:28.082Z,10.57
2019-05-29T01:54:54.023Z,10.60
2019-05-29T01:57:19.877Z,10.26
2019-05-29T01:59:45.705Z,10.32
2019-05-29T02:02:11.557Z,10.47
2019-05-29T02:04:37.405Z,10.40
2019-05-29T02:07:03.961Z,10.45
2019-05-29T02:09:29.816Z,10.52
2019-05-29T02:11:55.672Z,10.49
2019-05-29T02:14:22.668Z,10.48
2019-05-29T02:16:48.600Z,10.65
2019-05-29T02:19:15.648Z,10.65
2019-05-29T02:21:41.707Z,10.40
2019-05-29T02:24:07.557Z,10.40
2019-05-29T02:26:33.390Z,10.43
2019-05-29T02:28:59.256Z,10.17
2019-05-29T02:31:27.007Z,10.51
2019-05-29T02:33:52.876Z,10.31
2019-05-29T02:36:20.354Z,10.31
2019-05-29T02:38:46.470Z,10.28
2019-05-29T02:41:12.330Z,10.07
2019-05-29T02:43:38.293Z,10.17
2019-05-29T02:46:04.138Z,10.25
2019-05-29T02:48:31.614Z,10.26
2019-05-29T02:50:57.754Z,10.15
2019-05-29T02:53:24.490Z,10.15
2019-05-29T02:55:50.537Z,9.98
2019-05-29T02:58:16.382Z,9.98
2019-05-29T03:00:52.339Z,10.05
2019-05-29T03:03:19.491Z,9.98
2019-05-29T03:05:46.372Z,9.90
2019-05-29T03:08:12.356Z,10.07
2019-05-29T03:10:38.184Z,10.07
2019-05-29T03:13:04.039Z,9.87
2019-05-29T03:15:31.502Z,9.92
2019-05-29T03:17:57.426Z,9.91
2019-05-29T03:20:23.917Z,9.93
2019-05-29T03:22:49.935Z,9.99
2019-05-29T03:25:15.781Z,9.90
2019-05-29T03:27:41.604Z,9.89
2019-05-29T03:30:07.588Z,9.88
2019-05-29T03:32:41.701Z,9.93
2019-05-29T03:35:01.215Z,9.93
2019-05-29T03:37:28.232Z,9.93
2019-05-29T03:39:54.218Z,9.93
2019-05-29T03:42:20.142Z,9.93
2019-05-29T03:44:45.982Z,9.99
2019-05-29T03:47:11.861Z,9.97
2019-05-29T03:49:37.721Z,9.86
2019-05-29T03:52:04.089Z,9.87
2019-05-29T03:54:30.796Z,9.85
2019-05-29T03:56:57.715Z,9.91
2019-05-29T03:59:23.579Z,9.91
2019-05-29T04:01:49.436Z,9.90
2019-05-29T04:04:15.293Z,9.80
2019-05-29T04:06:41.116Z,9.80
2019-05-29T04:09:06.993Z,9.84
2019-05-29T04:11:35.554Z,9.88
2019-05-29T04:14:01.549Z,9.78
2019-05-29T04:16:27.816Z,9.78
2019-05-29T04:18:54.252Z,9.78
2019-05-29T04:21:21.348Z,9.78
2019-05-29T04:23:48.444Z,9.90
2019-05-29T04:26:15.309Z,9.97
2019-05-29T04:28:41.360Z,9.97
2019-05-29T04:31:07.303Z,9.98
2019-05-29T04:33:34.908Z,9.77
2019-05-29T04:36:00.951Z,9.91
2019-05-29T04:38:28.526Z,9.91
2019-05-29T04:40:54.555Z,9.85
2019-05-29T04:43:20.385Z,9.96
2019-05-29T04:45:46.216Z,9.92
2019-05-29T04:48:12.036Z,9.95
2019-05-29T04:50:40.196Z,10.05
2019-05-29T04:53:05.647Z,10.05
2019-05-29T04:55:32.689Z,10.05
2019-05-29T04:57:58.752Z,10.06
2019-05-29T05:00:24.600Z,10.15
2019-05-29T05:02:50.498Z,10.29
2019-05-29T05:05:19.414Z,10.28
2019-05-29T05:07:44.085Z,10.24
2019-05-29T05:10:10.524Z,10.27
2019-05-29T05:12:37.735Z,10.24
2019-05-29T05:15:04.767Z,10.24
2019-05-29T05:17:31.739Z,10.25
2019-05-29T05:19:57.879Z,10.25
2019-05-29T05:22:23.721Z,10.25
2019-05-29T05:24:49.565Z,10.34
2019-05-29T05:27:15.424Z,10.18
2019-05-29T05:29:41.273Z,10.33
2019-05-29T05:32:07.230Z,10.23
2019-05-29T05:34:33.106Z,10.07
2019-05-29T05:36:58.943Z,10.12
2019-05-29T05:39:24.816Z,10.08
2019-05-29T05:41:51.017Z,10.16
2019-05-29T05:44:16.877Z,10.17
2019-05-29T05:46:42.707Z,10.17
2019-05-29T05:49:08.855Z,10.30
2019-05-29T05:51:38.233Z,10.22
2019-05-29T05:54:04.271Z,10.28
2019-05-29T05:56:31.372Z,10.13
2019-05-29T05:58:57.300Z,10.13
2019-05-29T06:01:23.224Z,10.35
2019-05-29T06:03:49.079Z,10.47
2019-05-29T06:06:14.914Z,10.13
2019-05-29T06:08:40.755Z,10.13
2019-05-29T06:11:06.592Z,10.23
2019-05-29T06:13:32.448Z,10.08
2019-05-29T06:15:58.328Z,9.94
2019-05-29T06:18:24.175Z,9.92
2019-05-29T06:20:50.007Z,9.92
2019-05-29T06:23:15.873Z,9.90
2019-05-29T06:25:42.486Z,9.87
2019-05-29T06:28:09.495Z,9.93
2019-05-29T06:30:36.571Z,9.93
2019-05-29T06:33:03.344Z,9.85
2019-05-29T06:35:29.226Z,9.85
2019-05-29T06:37:55.072Z,9.85
2019-05-29T06:40:30.529Z,9.93
2019-05-29T06:42:56.403Z,9.86
2019-05-29T06:45:26.069Z,9.81
2019-05-29T06:47:51.955Z,9.96
2019-05-29T06:50:17.815Z,9.96
2019-05-29T06:52:43.679Z,10.06
2019-05-29T06:55:09.533Z,10.16
2019-05-29T06:57:36.030Z,9.99
2019-05-29T07:00:05.070Z,10.21
2019-05-29T07:02:31.872Z,10.07
2019-05-29T07:04:57.869Z,10.33
2019-05-29T07:07:23.731Z,10.33
2019-05-29T07:09:49.569Z,10.34
2019-05-29T07:12:15.428Z,10.30
2019-05-29T07:14:42.406Z,10.29
2019-05-29T07:17:08.416Z,10.23
2019-05-29T07:19:47.573Z,10.23
2019-05-29T07:22:02.113Z,10.50
2019-05-29T07:24:27.953Z,10.37
2019-05-29T07:26:53.804Z,10.49
2019-05-29T07:29:19.629Z,10.30
2019-05-29T07:31:45.568Z,10.53
2019-05-29T07:34:11.409Z,10.72
2019-05-29T07:36:37.910Z,10.67
2019-05-29T07:39:05.623Z,10.68
2019-05-29T07:41:31.498Z,10.65
2019-05-29T07:43:57.343Z,10.65
2019-05-29T07:46:23.182Z,10.62
2019-05-29T07:48:50.306Z,10.57
2019-05-29T07:51:16.594Z,10.72
2019-05-29T07:53:42.431Z,10.75
2019-05-29T07:56:21.627Z,10.88
2019-05-29T07:58:36.043Z,10.56
2019-05-29T08:01:12.909Z,10.56
2019-05-29T08:03:29.684Z,10.61
2019-05-29T08:05:55.541Z,10.61
2019-05-29T08:08:21.390Z,10.54
2019-05-29T08:10:47.611Z,10.65
2019-05-29T08:13:13.617Z,10.76
2019-05-29T08:15:54.146Z,10.89
2019-05-29T08:18:07.218Z,10.99
2019-05-29T08:20:33.063Z,11.11
2019-05-29T08:22:58.929Z,10.86
2019-05-29T08:25:24.777Z,10.70
2019-05-29T08:27:50.849Z,10.93
2019-05-29T08:30:17.196Z,11.03
2019-05-29T08:32:43.558Z,11.03
2019-05-29T08:35:12.148Z,10.86
2019-05-29T08:37:38.007Z,11.09
2019-05-29T08:40:05.869Z,11.09
2019-05-29T08:42:31.721Z,11.08
2019-05-29T08:44:57.571Z,10.91
2019-05-29T08:47:23.475Z,11.05
2019-05-29T08:49:52.505Z,11.10
2019-05-29T08:52:17.143Z,11.43
2019-05-29T08:54:43.982Z,11.43
2019-05-29T08:57:09.967Z,11.41
2019-05-29T08:59:35.871Z,11.41
2019-05-29T09:02:01.756Z,11.44
2019-05-29T09:04:27.649Z,11.80
2019-05-29T09:06:53.648Z,11.59
2019-05-29T09:09:19.651Z,11.71
2019-05-29T09:11:45.505Z,11.57
2019-05-29T09:14:11.365Z,11.64
2019-05-29T09:16:37.203Z,11.74
2019-05-29T09:19:03.190Z,12.04
2019-05-29T09:21:29.039Z,11.87
2019-05-29T09:23:58.494Z,12.01
2019-05-29T09:26:25.541Z,11.99
2019-05-29T09:28:50.419Z,12.40
2019-05-29T09:31:17.360Z,12.61
2019-05-29T09:33:44.021Z,12.43
2019-05-29T09:36:09.886Z,12.22
2019-05-29T09:38:35.722Z,12.65
2019-05-29T09:41:01.569Z,12.73
2019-05-29T09:43:30.680Z,12.38
2019-05-29T09:45:55.264Z,12.55
2019-05-29T09:48:24.792Z,12.79
2019-05-29T09:50:50.670Z,12.41
2019-05-29T09:53:16.739Z,12.67
2019-05-29T09:55:42.696Z,12.44
2019-05-29T09:58:08.555Z,12.47
2019-05-29T10:00:34.410Z,12.29
2019-05-29T10:03:01.437Z,12.37
2019-05-29T10:05:27.406Z,12.66
2019-05-29T10:07:54.529Z,12.66
2019-05-29T10:10:21.105Z,13.03
2019-05-29T10:12:46.948Z,13.25
2019-05-29T10:15:13.395Z,12.97
2019-05-29T10:17:39.327Z,12.96
2019-05-29T10:20:09.976Z,13.23
2019-05-29T10:22:36.238Z,13.03
2019-05-29T10:25:05.793Z,13.28
2019-05-29T10:27:31.774Z,13.10
2019-05-29T10:29:57.629Z,13.36
2019-05-29T10:32:23.469Z,13.41
2019-05-29T10:34:50.525Z,13.49
2019-05-29T10:37:18.314Z,13.52
2019-05-29T10:39:44.734Z,12.92
2019-05-29T10:42:10.827Z,13.29
2019-05-29T10:44:36.690Z,13.16
2019-05-29T10:47:02.635Z,13.29
2019-05-29T10:49:28.473Z,13.23
2019-05-29T10:52:12.898Z,13.54
2019-05-29T10:54:22.092Z,13.74
2019-05-29T10:56:48.775Z,13.39
2019-05-29T10:59:14.810Z,13.50
2019-05-29T11:01:40.658Z,13.42
2019-05-29T11:04:06.527Z,13.49
2019-05-29T11:06:32.508Z,13.88
2019-05-29T11:08:58.388Z,13.40
2019-05-29T11:11:24.311Z,13.53
2019-05-29T11:13:50.571Z,13.31
2019-05-29T11:16:16.602Z,13.13
2019-05-29T11:18:42.572Z,13.28
2019-05-29T11:21:08.404Z,13.22
2019-05-29T11:23:34.257Z,13.25
2019-05-29T11:26:00.179Z,13.24
2019-05-29T11:28:26.037Z,13.27
2019-05-29T11:30:53.277Z,13.19
2019-05-29T11:33:19.657Z,13.35
2019-05-29T11:35:57.738Z,13.22
2019-05-29T11:38:13.306Z,13.22
2019-05-29T11:40:39.207Z,12.89
2019-05-29T11:43:05.109Z,12.94
2019-05-29T11:45:34.531Z,12.72
2019-05-29T11:48:01.188Z,12.86
2019-05-29T11:50:26.467Z,12.67
2019-05-29T11:52:52.430Z,12.68
2019-05-29T11:55:18.435Z,12.87
2019-05-29T11:57:44.271Z,13.03
2019-05-29T12:00:19.767Z,13.26
2019-05-29T12:02:41.790Z,13.18
2019-05-29T12:05:08.430Z,13.46
2019-05-29T12:07:34.287Z,13.56
2019-05-29T12:10:00.474Z,13.08
2019-05-29T12:12:27.909Z,13.55
2019-05-29T12:15:04.952Z,13.49
2019-05-29T12:17:21.635Z,13.69
2019-05-29T12:19:47.624Z,13.90
2019-05-29T12:22:13.441Z,13.95
2019-05-29T12:24:39.299Z,13.85
2019-05-29T12:27:05.150Z,13.81
2019-05-29T12:29:31.005Z,13.73
2019-05-29T12:31:57.110Z,13.86
2019-05-29T12:34:22.995Z,14.19
2019-05-29T12:36:48.828Z,14.20
2019-05-29T12:39:14.689Z,14.45
2019-05-29T12:41:40.511Z,14.32
2019-05-29T12:44:06.444Z,14.50
2019-05-29T12:46:32.339Z,14.41
2019-05-29T12:48:59.452Z,14.63
2019-05-29T12:51:25.514Z,14.23
2019-05-29T12:53:51.510Z,14.34
2019-05-29T12:56:17.375Z,14.60
2019-05-29T12:58:43.204Z,14.65
2019-05-29T13:01:09.053Z,14.69
2019-05-29T13:03:34.892Z,14.79
2019-05-29T13:06:00.766Z,14.85
2019-05-29T13:08:26.633Z,14.77
2019-05-29T13:10:52.483Z,14.78
2019-05-29T13:13:18.349Z,14.32
2019-05-29T13:15:44.195Z,14.43
2019-05-29T13:18:10.356Z,14.43
2019-05-29T13:20:36.287Z,14.03
2019-05-29T13:23:04.508Z,14.18
2019-05-29T13:25:30.009Z,14.14
2019-05-29T13:27:58.952Z,13.90
2019-05-29T13:30:23.970Z,13.77
2019-05-29T13:32:49.856Z,13.83
2019-05-29T13:35:16.720Z,14.09
2019-05-29T13:37:49.556Z,14.17
2019-05-29T13:40:15.988Z,14.55
2019-05-29T13:42:41.936Z,14.43
2019-05-29T13:45:17.648Z,14.49
2019-05-29T13:47:36.224Z,14.07
2019-05-29T13:50:09.338Z,14.74
2019-05-29T13:52:32.167Z,15.07
2019-05-29T13:54:59.219Z,14.68
2019-05-29T13:57:25.189Z,14.87
2019-05-29T13:59:51.063Z,14.59
2019-05-29T14:02:16.936Z,14.74
2019-05-29T14:04:42.791Z,14.42
2019-05-29T14:07:08.941Z,14.98
2019-05-29T14:09:34.987Z,15.12
2019-05-29T14:12:01.063Z,15.33
2019-05-29T14:14:26.924Z,15.30
2019-05-29T14:16:52.733Z,15.03
2019-05-29T14:19:18.721Z,14.60
2019-05-29T14:21:44.647Z,14.85
2019-05-29T14:24:26.299Z,14.57
2019-05-29T14:26:38.274Z,14.56
2019-05-29T14:29:05.859Z,14.40
2019-05-29T14:31:32.012Z,14.19
2019-05-29T14:33:57.864Z,14.17
2019-05-29T14:36:23.909Z,14.24
2019-05-29T14:38:49.806Z,14.15
2019-05-29T14:41:15.642Z,14.24
2019-05-29T14:43:41.610Z,14.47
2019-05-29T14:46:08.129Z,14.36
2019-05-29T14:48:34.061Z,14.33
2019-05-29T14:50:59.891Z,14.47
2019-05-29T14:53:25.736Z,14.63
2019-05-29T14:55:51.583Z,14.52
2019-05-29T14:58:17.551Z,15.22
2019-05-29T15:00:43.369Z,15.50
2019-05-29T15:03:09.360Z,14.80
2019-05-29T15:05:35.213Z,14.38
2019-05-29T15:08:01.177Z,13.85
2019-05-29T15:10:27.825Z,13.91
2019-05-29T15:12:57.807Z,13.96
2019-05-29T15:15:21.717Z,13.88
2019-05-29T15:17:47.585Z,13.79
2019-05-29T15:20:16.114Z,14.04
2019-05-29T15:22:41.417Z,14.20
2019-05-29T15:25:17.396Z,14.06
2019-05-29T15:27:36.070Z,14.11
2019-05-29T15:30:03.500Z,14.02
2019-05-29T15:32:29.361Z,13.73
2019-05-29T15:34:55.205Z,14.00
2019-05-29T15:37:21.191Z,14.00
2019-05-29T15:39:47.022Z,14.18
2019-05-29T15:42:12.978Z,14.37
2019-05-29T15:44:38.835Z,14.59
2019-05-29T15:47:04.677Z,14.68
2019-05-29T15:49:30.514Z,14.46
2019-05-29T15:51:56.369Z,14.83
2019-05-29T15:54:22.293Z,15.43
2019-05-29T15:56:48.184Z,16.07
2019-05-29T15:59:14.919Z,15.79
2019-05-29T16:01:41.814Z,16.15
2019-05-29T16:04:07.709Z,16.10
2019-05-29T16:06:33.508Z,16.14
2019-05-29T16:08:59.381Z,15.75
2019-05-29T16:11:25.706Z,15.43
2019-05-29T16:13:51.683Z,14.83
2019-05-29T16:16:17.535Z,14.64
2019-05-29T16:18:43.357Z,14.56
2019-05-29T16:21:10.512Z,14.62
2019-05-29T16:23:36.600Z,14.60
2019-05-29T16:26:02.706Z,14.52
2019-05-29T16:28:28.552Z,14.56
2019-05-29T16:30:54.399Z,14.60
2019-05-29T16:33:20.380Z,14.46
2019-05-29T16:35:46.233Z,14.42
2019-05-29T16:38:13.904Z,14.49
2019-05-29T16:40:39.940Z,14.60
2019-05-29T16:43:05.899Z,14.44
2019-05-29T16:45:31.731Z,14.71
2019-05-29T16:47:57.607Z,14.73
2019-05-29T16:50:23.486Z,14.76
2019-05-29T16:52:49.389Z,14.76
2019-05-29T16:55:16.978Z,14.56
2019-05-29T16:57:43.181Z,14.60
2019-05-29T17:00:10.735Z,14.71
2019-05-29T17:02:37.388Z,14.63
2019-05-29T17:05:05.223Z,14.45
2019-05-29T17:07:31.064Z,14.50
2019-05-29T17:09:56.898Z,14.36
2019-05-29T17:12:22.734Z,14.52
2019-05-29T17:14:48.579Z,14.48
2019-05-29T17:17:15.355Z,14.49
2019-05-29T17:19:41.508Z,14.27
2019-05-29T17:22:07.447Z,14.51
2019-05-29T17:24:33.315Z,14.39
2019-05-29T17:26:59.166Z,14.28
2019-05-29T17:29:25.208Z,14.27
2019-05-29T17:31:51.057Z,14.10
2019-05-29T17:34:16.977Z,14.10
2019-05-29T17:36:42.871Z,14.28
2019-05-29T17:39:08.823Z,14.33
2019-05-29T17:41:34.887Z,14.30
2019-05-29T17:44:00.727Z,14.29
2019-05-29T17:46:26.566Z,14.47
2019-05-29T17:48:52.443Z,14.37
2019-05-29T17:51:19.633Z,14.24
2019-05-29T17:53:45.695Z,14.23
2019-05-29T17:56:25.239Z,14.19
2019-05-29T17:58:39.322Z,14.07
2019-05-29T18:01:05.245Z,14.04
2019-05-29T18:03:31.099Z,14.02
2019-05-29T18:05:56.937Z,14.17
2019-05-29T18:08:22.975Z,14.18
2019-05-29T18:10:48.916Z,13.94
2019-05-29T18:13:14.742Z,13.95
2019-05-29T18:15:40.817Z,13.94
2019-05-29T18:18:06.834Z,13.95
2019-05-29T18:20:32.775Z,13.97
2019-05-29T18:22:58.787Z,13.93
2019-05-29T18:25:25.945Z,13.90
2019-05-29T18:27:51.884Z,13.95
2019-05-29T18:30:18.209Z,13.84
2019-05-29T18:32:44.156Z,13.95
2019-05-29T18:35:10.435Z,14.01
2019-05-29T18:37:36.318Z,13.98
2019-05-29T18:40:07.362Z,13.69
2019-05-29T18:42:31.157Z,13.67
2019-05-29T18:44:57.010Z,13.60
2019-05-29T18:47:23.102Z,13.70
2019-05-29T18:49:49.042Z,13.69
2019-05-29T18:52:14.908Z,13.51
2019-05-29T18:54:40.772Z,13.42
2019-05-29T18:57:15.376Z,13.30
2019-05-29T18:59:34.426Z,13.02
2019-05-29T19:02:00.283Z,12.85
2019-05-29T19:04:26.128Z,12.86
2019-05-29T19:06:51.998Z,13.02
2019-05-29T19:09:17.847Z,13.05
2019-05-29T19:11:43.693Z,12.88
2019-05-29T19:14:09.549Z,12.81
2019-05-29T19:16:36.420Z,12.68
2019-05-29T19:19:03.790Z,12.60
2019-05-29T19:21:30.593Z,12.50
2019-05-29T19:23:56.544Z,12.22
2019-05-29T19:26:22.745Z,12.11
2019-05-29T19:28:48.612Z,11.89
2019-05-29T19:31:14.455Z,11.93
2019-05-29T19:33:40.346Z,11.92
2019-05-29T19:36:06.211Z,12.02
2019-05-29T19:38:32.102Z,11.90
2019-05-29T19:40:58.164Z,11.80
2019-05-29T19:43:24.220Z,11.77
2019-05-29T19:45:50.130Z,11.70
2019-05-29T19:48:15.997Z,11.60
2019-05-29T19:50:41.920Z,11.49
2019-05-29T19:53:07.801Z,11.43
2019-05-29T19:55:37.005Z,11.34
2019-05-29T19:58:02.369Z,11.43
2019-05-29T20:00:28.229Z,11.20
2019-05-29T20:02:54.087Z,11.14
2019-05-29T20:05:19.974Z,10.96
2019-05-29T20:07:45.808Z,11.06
2019-05-29T20:10:11.848Z,11.03
2019-05-29T20:12:38.215Z,10.74
2019-05-29T20:15:05.924Z,10.89
2019-05-29T20:17:32.076Z,11.02
2019-05-29T20:19:57.981Z,11.07
2019-05-29T20:22:23.815Z,10.81
2019-05-29T20:24:49.691Z,10.54
2019-05-29T20:27:15.527Z,10.29
2019-05-29T20:29:42.636Z,10.46
2019-05-29T20:32:08.656Z,10.19
2019-05-29T20:34:34.718Z,10.12
2019-05-29T20:37:00.758Z,10.15
2019-05-29T20:39:26.660Z,10.07
2019-05-29T20:41:52.544Z,10.08
2019-05-29T20:44:18.432Z,10.01
2019-05-29T20:46:44.324Z,10.07
2019-05-29T20:49:10.199Z,9.61
2019-05-29T20:51:36.203Z,9.84
2019-05-29T20:54:02.115Z,9.95
2019-05-29T20:56:27.994Z,9.76
2019-05-29T20:58:54.167Z,9.37
2019-05-29T21:01:20.183Z,9.63
2019-05-29T21:03:46.086Z,9.58
2019-05-29T21:06:11.926Z,9.58
2019-05-29T21:08:38.927Z,9.60
2019-05-29T21:11:05.178Z,9.73
2019-05-29T21:13:31.049Z,9.73
2019-05-29T21:15:57.015Z,9.62
2019-05-29T21:18:22.906Z,9.58
2019-05-29T21:20:48.814Z,9.32
2019-05-29T21:23:14.684Z,9.39
2019-05-29T21:25:40.779Z,9.12
2019-05-29T21:28:06.608Z,9.28
2019-05-29T21:30:32.465Z,9.11
2019-05-29T21:32:58.326Z,9.08
2019-05-29T21:35:24.234Z,9.27
2019-05-29T21:37:50.098Z,9.19
2019-05-29T21:40:16.256Z,9.22
2019-05-29T21:42:42.845Z,9.17
2019-05-29T21:45:09.038Z,9.01
2019-05-29T21:47:38.877Z,9.06
2019-05-29T21:50:05.454Z,9.06
2019-05-29T21:52:31.301Z,9.24
2019-05-29T21:54:57.179Z,9.23
2019-05-29T21:57:23.064Z,9.19
2019-05-29T21:59:49.034Z,9.32
2019-05-29T22:02:15.022Z,8.87
2019-05-29T22:04:40.872Z,8.63
2019-05-29T22:07:06.926Z,8.49
2019-05-29T22:09:32.907Z,8.49
2019-05-29T22:11:58.772Z,8.06
2019-05-29T22:14:24.609Z,8.44
2019-05-29T22:16:50.870Z,8.57
2019-05-29T22:19:16.925Z,8.56
2019-05-29T22:21:42.772Z,8.72
2019-05-29T22:24:08.624Z,8.81
2019-05-29T22:26:34.476Z,8.77
2019-05-29T22:29:15.868Z,8.72
2019-05-29T22:31:28.256Z,7.94
2019-05-29T22:33:55.342Z,7.94
2019-05-29T22:36:21.685Z,8.09
2019-05-29T22:38:47.926Z,7.93
2019-05-29T22:41:13.794Z,7.93
2019-05-29T22:43:41.790Z,7.66
2019-05-29T22:46:07.667Z,8.07
2019-05-29T22:48:33.959Z,8.07
2019-05-29T22:50:59.939Z,7.56
2019-05-29T22:53:25.923Z,7.74
2019-05-29T22:55:51.772Z,7.92
2019-05-29T22:58:17.980Z,7.79
2019-05-29T23:00:43.829Z,7.98
2019-05-29T23:03:09.693Z,8.03
2019-05-29T23:05:35.543Z,8.00
2019-05-29T23:08:02.553Z,7.84
2019-05-29T23:10:28.559Z,7.16
2019-05-29T23:12:54.562Z,7.16
2019-05-29T23:15:20.435Z,7.69
2019-05-29T23:17:46.317Z,7.69
2019-05-29T23:20:12.230Z,7.61
2019-05-29T23:22:38.162Z,7.28
2019-05-29T23:25:04.415Z,7.28
2019-05-29T23:27:30.256Z,7.55
2019-05-29T23:29:56.827Z,7.55
2019-05-29T23:32:22.761Z,7.48
2019-05-29T23:34:48.600Z,7.48
2019-05-29T23:37:14.447Z,7.51
2019-05-29T23:39:40.293Z,7.45
2019-05-29T23:42:06.120Z,7.05
2019-05-29T23:44:31.994Z,7.23
2019-05-29T23:46:57.826Z,6.88
2019-05-29T23:49:23.694Z,7.10
2019-05-29T23:51:49.563Z,7.29
2019-05-29T23:54:15.381Z,7.21
2019-05-29T23:56:41.264Z,7.09
2019-05-29T23:59:07.082Z,7.21
